createdAt,value
2019-04-22T00:00:34.007Z,22.73
2019-04-22T00:05:56.344Z,21.97
2019-04-22T00:11:13.088Z,22.25
2019-04-22T00:16:19.181Z,21.40
2019-04-22T00:21:25.670Z,22.42
2019-04-22T00:26:37.413Z,24.73
2019-04-22T00:31:54.438Z,30.80
2019-04-22T00:37:00.991Z,24.03
2019-04-22T00:42:08.320Z,25.30
2019-04-22T00:47:23.140Z,25.43
2019-04-22T00:52:21.802Z,25.23
2019-04-22T00:57:35.185Z,23.50
2019-04-22T01:07:53.223Z,23.00
2019-04-22T01:12:57.208Z,19.07
2019-04-22T01:18:03.929Z,17.73
2019-04-22T01:23:10.945Z,17.23
2019-04-22T01:28:14.210Z,15.60
2019-04-22T01:33:18.638Z,13.37
2019-04-22T01:38:43.263Z,13.47
2019-04-22T01:44:00.703Z,12.23
2019-04-22T01:48:59.564Z,12.23
2019-04-22T01:54:14.856Z,11.30
2019-04-22T01:59:06.329Z,10.67
2019-04-22T02:04:26.898Z,10.53
2019-04-22T02:09:53.671Z,9.37
2019-04-22T02:19:53.355Z,9.55
2019-04-22T02:25:00.440Z,9.20
2019-04-22T02:30:11.464Z,9.57
2019-04-22T02:35:23.939Z,8.80
2019-04-22T02:40:34.897Z,10.05
2019-04-22T02:45:54.288Z,9.60
2019-04-22T02:50:58.267Z,9.30
2019-04-22T02:56:08.179Z,11.75
2019-04-22T03:01:13.931Z,9.60
2019-04-22T03:06:30.398Z,10.27
2019-04-22T03:11:25.299Z,11.53
2019-04-22T03:16:34.875Z,9.70
2019-04-22T03:47:27.948Z,8.40
2019-04-22T03:52:20.577Z,10.60
2019-04-22T04:02:45.760Z,13.08
2019-04-22T04:13:15.828Z,8.43
2019-04-22T04:33:38.285Z,10.43
2019-04-22T04:38:48.120Z,8.63
2019-04-22T04:44:04.408Z,9.63
2019-04-22T04:49:07.508Z,9.37
2019-04-22T04:54:21.467Z,10.93
2019-04-22T05:04:42.114Z,10.00
2019-04-22T05:15:05.524Z,10.87
2019-04-22T05:19:57.482Z,13.50
2019-04-22T05:25:01.364Z,10.23
2019-04-22T05:35:14.324Z,9.27
2019-04-22T05:40:26.272Z,9.40
2019-04-22T05:45:24.970Z,9.18
2019-04-22T05:50:44.211Z,9.30
2019-04-22T05:55:51.791Z,8.97
2019-04-22T06:01:36.684Z,9.63
2019-04-22T06:06:15.117Z,13.25
2019-04-22T06:11:26.800Z,10.93
2019-04-22T06:16:42.331Z,9.45
2019-04-22T06:27:04.518Z,9.03
2019-04-22T06:32:22.374Z,10.77
2019-04-22T06:37:08.691Z,8.30
2019-04-22T06:42:11.523Z,8.33
2019-04-22T06:47:39.857Z,8.53
2019-04-22T06:52:47.820Z,7.73
2019-04-22T06:57:36.991Z,8.50
2019-04-22T07:03:12.589Z,8.03
2019-04-22T07:07:56.872Z,10.23
2019-04-22T07:13:01.189Z,7.97
2019-04-22T07:18:18.056Z,6.90
2019-04-22T07:28:22.941Z,6.87
2019-04-22T07:33:37.921Z,9.77
2019-04-22T07:38:50.768Z,7.10
2019-04-22T07:44:02.343Z,6.65
2019-04-22T07:49:02.359Z,6.03
2019-04-22T07:54:06.165Z,6.47
2019-04-22T07:59:22.284Z,7.28
2019-04-22T08:04:50.073Z,6.47
2019-04-22T08:14:50.015Z,6.50
2019-04-22T08:19:57.470Z,7.60
2019-04-22T08:25:00.280Z,5.00
2019-04-22T08:30:14.716Z,6.50
2019-04-22T08:35:20.237Z,7.33
2019-04-22T08:40:30.702Z,5.85
2019-04-22T08:45:38.558Z,5.50
2019-04-22T08:50:44.638Z,5.03
2019-04-22T08:55:57.945Z,6.33
2019-04-22T09:01:04.554Z,5.50
2019-04-22T09:11:21.660Z,5.07
2019-04-22T09:16:32.105Z,5.10
2019-04-22T09:26:45.327Z,9.13
2019-04-22T09:31:58.241Z,4.80
2019-04-22T09:37:08.194Z,8.10
2019-04-22T09:42:14.545Z,5.47
2019-04-22T09:47:19.154Z,5.30
2019-04-22T09:52:23.984Z,5.83
2019-04-22T09:57:35.320Z,5.70
2019-04-22T10:02:41.010Z,6.40
2019-04-22T10:07:49.110Z,7.30
2019-04-22T10:13:00.123Z,8.20
2019-04-22T10:18:12.646Z,6.93
2019-04-22T10:23:21.595Z,6.90
2019-04-22T10:28:23.627Z,6.50
2019-04-22T10:33:27.236Z,6.43
2019-04-22T10:38:16.450Z,6.20
2019-04-22T10:43:23.272Z,7.97
2019-04-22T10:48:30.333Z,6.50
2019-04-22T10:53:37.551Z,7.00
2019-04-22T10:58:44.726Z,10.37
2019-04-22T11:03:53.070Z,6.20
2019-04-22T11:09:03.177Z,8.47
2019-04-22T11:14:08.861Z,5.50
2019-04-22T11:19:15.494Z,5.13
2019-04-22T11:24:23.029Z,8.57
2019-04-22T11:29:31.726Z,5.80
2019-04-22T11:34:39.356Z,8.57
2019-04-22T11:39:50.644Z,9.83
2019-04-22T11:44:55.314Z,6.90
2019-04-22T11:50:02.241Z,5.90
2019-04-22T11:55:10.972Z,7.97
2019-04-22T12:00:22.825Z,6.37
2019-04-22T12:05:30.047Z,7.27
2019-04-22T12:10:44.065Z,5.03
2019-04-22T12:15:44.988Z,4.80
2019-04-22T12:20:52.978Z,4.60
2019-04-22T12:26:04.158Z,7.63
2019-04-22T12:31:09.413Z,6.20
2019-04-22T12:36:16.031Z,5.00
2019-04-22T12:41:23.619Z,7.30
2019-04-22T12:46:30.396Z,4.57
2019-04-22T12:51:37.061Z,5.50
2019-04-22T12:56:43.991Z,4.67
2019-04-22T13:01:52.955Z,4.37
2019-04-22T13:06:59.965Z,5.77
2019-04-22T13:12:08.958Z,5.13
2019-04-22T13:17:17.035Z,4.20
2019-04-22T13:22:24.956Z,5.33
2019-04-22T13:27:33.149Z,5.37
2019-04-22T13:32:40.683Z,4.07
2019-04-22T13:37:48.703Z,4.33
2019-04-22T13:42:55.644Z,4.63
2019-04-22T13:48:21.983Z,5.10
2019-04-22T13:53:45.742Z,6.43
2019-04-22T13:58:37.093Z,5.13
2019-04-22T14:03:48.957Z,4.13
2019-04-22T14:08:55.913Z,5.30
2019-04-22T14:14:02.964Z,4.67
2019-04-22T14:19:09.971Z,5.27
2019-04-22T14:24:17.847Z,4.63
2019-04-22T14:29:25.849Z,5.00
2019-04-22T14:34:32.482Z,6.50
2019-04-22T14:39:39.916Z,4.37
2019-04-22T14:45:20.497Z,4.33
2019-04-22T14:50:17.802Z,4.93
2019-04-22T14:55:10.144Z,4.03
2019-04-22T15:00:13.705Z,5.10
2019-04-22T15:05:21.910Z,6.47
2019-04-22T15:10:28.756Z,6.43
2019-04-22T15:16:03.385Z,7.50
2019-04-22T15:21:14.917Z,6.63
2019-04-22T15:26:22.274Z,6.47
2019-04-22T15:31:29.123Z,7.53
2019-04-22T15:36:37.839Z,5.03
2019-04-22T15:41:56.151Z,5.10
2019-04-22T15:46:53.178Z,7.13
2019-04-22T15:52:02.148Z,6.50
2019-04-22T15:57:08.873Z,6.57
2019-04-22T16:02:16.003Z,5.03
2019-04-22T16:07:25.984Z,7.83
2019-04-22T16:12:39.516Z,5.67
2019-04-22T16:17:40.410Z,9.23
2019-04-22T16:23:27.879Z,6.27
2019-04-22T16:28:33.440Z,7.57
2019-04-22T16:33:43.354Z,6.73
2019-04-22T16:38:49.080Z,9.03
2019-04-22T16:43:58.372Z,5.87
2019-04-22T16:49:07.474Z,7.03
2019-04-22T16:54:15.886Z,6.70
2019-04-22T16:59:22.719Z,4.17
2019-04-22T17:04:51.407Z,5.70
2019-04-22T17:09:57.919Z,7.07
2019-04-22T17:15:08.204Z,4.50
2019-04-22T17:20:15.482Z,7.40
2019-04-22T17:25:22.512Z,3.90
2019-04-22T17:30:29.445Z,4.93
2019-04-22T17:35:36.095Z,5.57
2019-04-22T17:40:55.835Z,4.00
2019-04-22T17:46:30.513Z,6.60
2019-04-22T17:51:46.060Z,4.50
2019-04-22T17:56:54.542Z,7.03
2019-04-22T18:01:56.901Z,4.80
2019-04-22T18:07:12.325Z,7.17
2019-04-22T18:12:26.637Z,5.43
2019-04-22T18:17:32.139Z,6.57
2019-04-22T18:22:24.422Z,4.53
2019-04-22T18:32:50.491Z,4.92
2019-04-22T18:37:59.884Z,3.10
2019-04-22T18:43:10.432Z,4.60
2019-04-22T18:48:08.792Z,6.27
2019-04-22T18:54:06.161Z,5.35
2019-04-22T18:59:02.188Z,5.17
2019-04-22T19:04:10.552Z,7.90
2019-04-22T19:09:43.754Z,3.80
2019-04-22T19:14:51.056Z,5.17
2019-04-22T19:20:03.071Z,5.80
2019-04-22T19:24:57.992Z,7.33
2019-04-22T19:30:14.116Z,3.63
2019-04-22T19:35:15.623Z,4.40
2019-04-22T19:40:30.614Z,4.27
2019-04-22T19:45:38.366Z,5.13
2019-04-22T19:50:52.696Z,6.40
2019-04-22T19:55:49.768Z,4.42
2019-04-22T20:01:20.922Z,5.07
2019-04-22T20:06:37.729Z,4.27
2019-04-22T20:11:51.789Z,4.67
2019-04-22T20:16:57.002Z,5.12
2019-04-22T20:22:09.799Z,7.63
2019-04-22T20:27:20.351Z,4.83
2019-04-22T20:32:21.883Z,5.05
2019-04-22T20:37:35.388Z,3.57
2019-04-22T20:42:48.751Z,5.08
2019-04-22T20:47:42.614Z,3.73
2019-04-22T20:52:59.285Z,3.30
2019-04-22T20:58:10.100Z,4.43
2019-04-22T21:03:06.489Z,4.77
2019-04-22T21:08:23.918Z,7.83
2019-04-22T21:13:22.878Z,4.45
2019-04-22T21:18:39.134Z,6.53
2019-04-22T21:23:42.131Z,7.60
2019-04-22T21:28:53.464Z,5.45
2019-04-22T21:34:03.953Z,4.00
2019-04-22T21:39:08.256Z,4.33
2019-04-22T21:44:21.294Z,8.00
2019-04-22T21:49:29.813Z,3.27
2019-04-22T21:54:42.919Z,3.87
2019-04-22T21:59:47.330Z,3.30
2019-04-22T22:04:47.309Z,6.08
2019-04-22T22:10:01.439Z,3.40
2019-04-22T22:15:07.279Z,5.30
2019-04-22T22:20:19.087Z,5.20
2019-04-22T22:25:26.459Z,4.40
2019-04-22T22:35:40.539Z,7.00
2019-04-22T22:40:34.475Z,4.20
2019-04-22T22:45:49.120Z,4.23
2019-04-22T22:51:09.674Z,3.73
2019-04-22T22:56:25.410Z,3.90
2019-04-22T23:01:30.189Z,4.40
2019-04-22T23:06:42.381Z,4.73
2019-04-22T23:11:58.571Z,5.17
2019-04-22T23:16:39.577Z,4.33
2019-04-22T23:21:43.982Z,2.97
2019-04-22T23:27:10.273Z,3.40
2019-04-22T23:32:17.688Z,4.83
2019-04-22T23:37:25.184Z,3.55
2019-04-22T23:42:46.587Z,7.53
2019-04-22T23:47:41.141Z,5.20
2019-04-22T23:52:58.424Z,6.12
2019-04-22T23:58:07.681Z,6.77
